createdAt,value
2023-04-02T00:02:20.764Z,3.63
2023-04-02T00:05:31.375Z,3.58
2023-04-02T00:08:03.428Z,3.75
2023-04-02T00:10:32.929Z,4.20
2023-04-02T00:13:11.882Z,4.32
2023-04-02T00:15:40.409Z,4.60
2023-04-02T00:18:07.506Z,4.65
2023-04-02T00:20:36.911Z,4.50
2023-04-02T00:23:03.583Z,4.60
2023-04-02T00:25:34.327Z,5.00
2023-04-02T00:28:00.934Z,5.10
2023-04-02T00:30:27.793Z,5.07
2023-04-02T00:32:54.559Z,5.63
2023-04-02T00:35:29.281Z,5.55
2023-04-02T00:37:56.644Z,5.72
2023-04-02T00:40:28.760Z,5.90
2023-04-02T00:42:58.516Z,5.88
2023-04-02T00:45:31.209Z,5.45
2023-04-02T00:48:00.445Z,6.63
2023-04-02T00:50:35.839Z,6.30
2023-04-02T00:53:10.235Z,5.45
2023-04-02T00:55:39.309Z,6.03
2023-04-02T00:58:26.503Z,5.97
2023-04-02T01:00:54.002Z,6.22
2023-04-02T01:03:22.840Z,6.05
2023-04-02T01:06:01.640Z,6.22
2023-04-02T01:09:05.734Z,6.40
2023-04-02T01:11:36.999Z,6.18
2023-04-02T01:14:09.570Z,6.50
2023-04-02T01:16:50.754Z,6.53
2023-04-02T01:20:07.383Z,6.63
2023-04-02T01:22:42.255Z,6.07
2023-04-02T01:25:14.126Z,6.50
2023-04-02T01:27:49.109Z,7.15
2023-04-02T01:30:15.960Z,6.07
2023-04-02T01:32:43.067Z,6.55
2023-04-02T01:35:10.309Z,5.85
2023-04-02T01:37:44.919Z,6.45
2023-04-02T01:40:54.203Z,6.22
2023-04-02T01:43:37.494Z,6.57
2023-04-02T01:46:31.982Z,5.57
2023-04-02T01:49:01.543Z,6.05
2023-04-02T01:51:34.170Z,5.63
2023-04-02T01:54:03.398Z,5.68
2023-04-02T01:56:30.561Z,5.43
2023-04-02T01:58:57.937Z,5.47
2023-04-02T02:01:27.792Z,5.50
2023-04-02T02:03:54.675Z,5.22
2023-04-02T02:06:21.295Z,5.38
2023-04-02T02:08:57.498Z,5.55
2023-04-02T02:11:29.374Z,4.88
2023-04-02T02:13:58.715Z,5.10
2023-04-02T02:16:29.456Z,4.80
2023-04-02T02:18:59.304Z,5.07
2023-04-02T02:21:34.085Z,4.43
2023-04-02T02:24:02.138Z,4.13
2023-04-02T02:26:29.570Z,4.60
2023-04-02T02:28:57.829Z,4.18
2023-04-02T02:31:28.468Z,4.28
2023-04-02T02:34:06.545Z,3.90
2023-04-02T02:36:49.196Z,3.80
2023-04-02T02:42:04.519Z,4.05
2023-04-02T02:44:33.596Z,4.32
2023-04-02T02:47:08.959Z,4.25
2023-04-02T02:49:39.582Z,3.97
2023-04-02T02:52:08.976Z,3.53
2023-04-02T02:54:36.896Z,4.00
2023-04-02T02:57:08.133Z,3.78
2023-04-02T02:59:34.929Z,3.80
2023-04-02T03:02:01.823Z,3.97
2023-04-02T03:04:30.568Z,3.95
2023-04-02T03:06:57.961Z,3.30
2023-04-02T03:09:52.348Z,3.78
2023-04-02T03:12:54.882Z,4.30
2023-04-02T03:15:34.580Z,3.78
2023-04-02T03:18:07.761Z,3.40
2023-04-02T03:20:47.033Z,3.47
2023-04-02T03:23:28.405Z,3.58
2023-04-02T03:26:03.824Z,3.22
2023-04-02T03:28:33.287Z,3.72
2023-04-02T03:31:08.915Z,3.08
2023-04-02T03:33:42.565Z,3.60
2023-04-02T03:36:21.053Z,3.67
2023-04-02T03:38:52.576Z,3.65
2023-04-02T03:41:27.081Z,2.63
2023-04-02T03:43:59.188Z,3.28
2023-04-02T03:46:35.894Z,3.45
2023-04-02T03:49:06.416Z,3.05
2023-04-02T03:51:37.909Z,3.30
2023-04-02T03:54:04.736Z,3.27
2023-04-02T03:56:39.765Z,3.33
2023-04-02T03:59:31.939Z,3.00
2023-04-02T04:02:00.403Z,3.43
2023-04-02T04:04:28.752Z,2.97
2023-04-02T04:06:56.748Z,2.80
2023-04-02T04:09:34.996Z,2.88
2023-04-02T04:12:27.019Z,3.20
2023-04-02T04:15:21.448Z,3.07
2023-04-02T04:18:06.349Z,2.67
2023-04-02T04:20:57.239Z,2.58
2023-04-02T04:23:30.542Z,2.90
2023-04-02T04:26:19.831Z,2.88
2023-04-02T04:28:58.501Z,2.90
2023-04-02T04:31:34.127Z,3.03
2023-04-02T04:34:11.109Z,3.17
2023-04-02T04:36:48.025Z,2.80
2023-04-02T04:39:23.471Z,3.05
2023-04-02T04:41:51.177Z,2.78
2023-04-02T04:44:24.288Z,3.05
2023-04-02T04:47:27.195Z,2.50
2023-04-02T04:50:05.490Z,2.63
2023-04-02T04:52:37.191Z,2.47
2023-04-02T04:55:18.170Z,2.83
2023-04-02T04:57:45.359Z,2.95
2023-04-02T05:00:25.218Z,2.80
2023-04-02T05:02:57.520Z,2.33
2023-04-02T05:05:30.441Z,2.72
2023-04-02T05:08:00.885Z,2.25
2023-04-02T05:10:40.372Z,2.53
2023-04-02T05:13:14.632Z,2.33
2023-04-02T05:16:05.517Z,3.05
2023-04-02T05:18:36.412Z,2.33
2023-04-02T05:21:04.009Z,2.85
2023-04-02T05:23:45.472Z,2.40
2023-04-02T05:26:18.304Z,2.53
2023-04-02T05:28:53.105Z,2.05
2023-04-02T05:31:26.191Z,2.53
2023-04-02T05:33:52.921Z,2.20
2023-04-02T05:36:25.862Z,2.20
2023-04-02T05:38:53.606Z,1.98
2023-04-02T05:41:32.748Z,2.05
2023-04-02T05:44:20.604Z,2.20
2023-04-02T05:46:57.474Z,1.92
2023-04-02T05:49:27.731Z,1.92
2023-04-02T05:51:58.951Z,1.98
2023-04-02T05:54:36.078Z,1.95
2023-04-02T05:57:12.140Z,2.03
2023-04-02T05:59:41.935Z,2.10
2023-04-02T06:02:21.334Z,2.17
2023-04-02T06:04:57.137Z,2.10
2023-04-02T06:07:28.475Z,1.80
2023-04-02T06:10:05.010Z,2.33
2023-04-02T06:12:54.965Z,1.90
2023-04-02T06:15:23.296Z,1.90
2023-04-02T06:18:09.470Z,1.95
2023-04-02T06:20:36.103Z,1.90
2023-04-02T06:23:07.911Z,1.80
2023-04-02T06:25:38.338Z,1.75
2023-04-02T06:28:07.312Z,2.47
2023-04-02T06:30:36.991Z,1.80
2023-04-02T06:33:03.814Z,2.47
2023-04-02T06:35:30.556Z,1.90
2023-04-02T06:37:59.793Z,1.83
2023-04-02T06:40:30.564Z,1.98
2023-04-02T06:42:59.834Z,1.80
2023-04-02T06:45:34.948Z,1.98
2023-04-02T06:48:03.042Z,1.67
2023-04-02T06:50:41.715Z,2.22
2023-04-02T06:53:26.843Z,1.73
2023-04-02T06:56:03.537Z,1.80
2023-04-02T06:58:29.991Z,1.63
2023-04-02T07:00:56.817Z,1.90
2023-04-02T07:03:25.551Z,1.63
2023-04-02T07:05:52.025Z,1.80
2023-04-02T07:08:18.545Z,1.63
2023-04-02T07:10:44.977Z,2.00
2023-04-02T07:13:24.673Z,1.73
2023-04-02T07:15:52.805Z,2.08
2023-04-02T07:18:34.007Z,1.58
2023-04-02T07:21:00.667Z,2.05
2023-04-02T07:23:27.243Z,1.55
2023-04-02T07:25:54.928Z,1.60
2023-04-02T07:28:22.861Z,1.60
2023-04-02T07:30:50.358Z,2.00
2023-04-02T07:33:19.721Z,1.70
2023-04-02T07:35:46.829Z,1.50
2023-04-02T07:38:13.312Z,1.70
2023-04-02T07:40:40.130Z,1.77
2023-04-02T07:43:07.308Z,1.85
2023-04-02T07:45:34.251Z,1.40
2023-04-02T07:48:08.345Z,1.73
2023-04-02T07:50:35.196Z,1.80
2023-04-02T07:53:02.036Z,1.60
2023-04-02T07:55:28.658Z,1.80
2023-04-02T07:57:58.100Z,1.58
2023-04-02T08:00:25.703Z,1.60
2023-04-02T08:02:52.740Z,1.77
2023-04-02T08:05:20.014Z,1.95
2023-04-02T08:07:57.069Z,1.60
2023-04-02T08:10:24.329Z,1.50
2023-04-02T08:12:51.264Z,1.42
2023-04-02T08:15:18.116Z,1.88
2023-04-02T08:17:45.407Z,2.53
2023-04-02T08:20:20.048Z,1.70
2023-04-02T08:22:47.302Z,1.60
2023-04-02T08:25:14.069Z,1.70
2023-04-02T08:27:40.485Z,1.63
2023-04-02T08:30:08.589Z,1.90
2023-04-02T08:32:35.463Z,1.55
2023-04-02T08:35:02.734Z,1.70
2023-04-02T08:37:29.268Z,1.40
2023-04-02T08:39:55.977Z,1.70
2023-04-02T08:42:22.366Z,1.67
2023-04-02T08:45:21.292Z,1.58
2023-04-02T08:47:55.551Z,1.65
2023-04-02T08:50:33.902Z,1.60
2023-04-02T08:53:03.257Z,1.35
2023-04-02T08:56:05.806Z,1.80
2023-04-02T08:58:44.844Z,1.80
2023-04-02T09:01:43.685Z,1.30
2023-04-02T09:04:20.740Z,1.90
2023-04-02T09:06:48.828Z,1.80
2023-04-02T09:09:16.052Z,2.28
2023-04-02T09:11:53.787Z,1.95
2023-04-02T09:14:29.749Z,2.25
2023-04-02T09:17:02.128Z,2.15
2023-04-02T09:19:36.691Z,1.50
2023-04-02T09:22:20.160Z,1.67
2023-04-02T09:24:52.320Z,1.33
2023-04-02T09:27:21.241Z,1.90
2023-04-02T09:29:53.936Z,1.73
2023-04-02T09:32:31.004Z,1.90
2023-04-02T09:35:25.377Z,1.80
2023-04-02T09:38:18.945Z,1.77
2023-04-02T09:40:50.277Z,1.60
2023-04-02T09:43:19.649Z,1.80
2023-04-02T09:46:00.143Z,2.10
2023-04-02T09:48:30.254Z,1.80
2023-04-02T09:51:38.854Z,1.40
2023-04-02T09:54:14.279Z,1.95
2023-04-02T09:56:41.363Z,1.90
2023-04-02T09:59:13.741Z,1.65
2023-04-02T10:01:42.758Z,1.90
2023-04-02T10:04:31.569Z,1.80
2023-04-02T10:06:58.271Z,1.33
2023-04-02T10:09:31.706Z,1.67
2023-04-02T10:12:00.024Z,1.40
2023-04-02T10:14:30.633Z,1.60
2023-04-02T10:17:00.341Z,1.80
2023-04-02T10:19:34.207Z,1.45
2023-04-02T10:22:03.854Z,1.52
2023-04-02T10:24:30.601Z,1.40
2023-04-02T10:27:22.918Z,1.60
2023-04-02T10:30:05.451Z,1.48
2023-04-02T10:32:38.054Z,1.35
2023-04-02T10:35:07.602Z,1.70
2023-04-02T10:37:47.248Z,1.30
2023-04-02T10:40:37.158Z,1.60
2023-04-02T10:43:25.806Z,1.88
2023-04-02T10:46:38.445Z,1.48
2023-04-02T10:49:17.302Z,1.90
2023-04-02T10:52:05.939Z,1.70
2023-04-02T10:54:49.443Z,1.60
2023-04-02T10:57:35.144Z,1.83
2023-04-02T11:00:17.438Z,1.95
2023-04-02T11:03:02.979Z,1.40
2023-04-02T11:05:37.500Z,1.15
2023-04-02T11:08:22.822Z,1.75
2023-04-02T11:10:54.988Z,1.35
2023-04-02T11:13:35.640Z,1.45
2023-04-02T11:16:02.218Z,1.48
2023-04-02T11:18:35.845Z,1.63
2023-04-02T11:21:06.408Z,1.50
2023-04-02T11:23:36.225Z,1.67
2023-04-02T11:26:38.218Z,1.60
2023-04-02T11:29:06.833Z,1.60
2023-04-02T11:31:33.969Z,1.50
2023-04-02T11:34:00.556Z,1.38
2023-04-02T11:36:52.744Z,1.40
2023-04-02T11:39:47.122Z,1.55
2023-04-02T11:42:19.581Z,1.50
2023-04-02T11:47:24.250Z,1.73
2023-04-02T11:50:03.266Z,1.35
2023-04-02T11:52:45.093Z,1.60
2023-04-02T11:55:24.831Z,1.50
2023-04-02T11:58:21.065Z,1.45
2023-04-02T12:01:07.959Z,1.50
2023-04-02T12:03:59.343Z,1.55
2023-04-02T12:06:49.093Z,1.23
2023-04-02T12:09:29.476Z,1.42
2023-04-02T12:11:58.055Z,1.13
2023-04-02T12:14:36.681Z,1.30
2023-04-02T12:17:07.739Z,1.50
2023-04-02T12:19:36.041Z,1.20
2023-04-02T12:22:02.667Z,1.30
2023-04-02T12:24:31.339Z,1.60
2023-04-02T12:27:17.041Z,1.45
2023-04-02T12:29:43.556Z,1.38
2023-04-02T12:32:30.345Z,1.48
2023-04-02T12:34:58.088Z,1.63
2023-04-02T12:37:29.347Z,1.20
2023-04-02T12:39:58.788Z,1.30
2023-04-02T12:42:33.276Z,1.30
2023-04-02T12:45:00.488Z,1.30
2023-04-02T12:47:27.588Z,1.30
2023-04-02T12:49:55.697Z,1.40
2023-04-02T12:52:28.484Z,1.60
2023-04-02T12:55:00.496Z,1.13
2023-04-02T12:57:26.885Z,1.20
2023-04-02T12:59:57.827Z,1.30
2023-04-02T13:02:26.139Z,1.10
2023-04-02T13:04:55.020Z,1.33
2023-04-02T13:07:25.710Z,1.50
2023-04-02T13:09:57.572Z,1.40
2023-04-02T13:12:38.713Z,1.60
2023-04-02T13:15:08.077Z,1.27
2023-04-02T13:17:40.760Z,1.30
2023-04-02T13:20:31.956Z,1.20
2023-04-02T13:22:59.875Z,1.30
2023-04-02T13:25:31.944Z,1.50
2023-04-02T13:27:58.752Z,1.38
2023-04-02T13:30:27.155Z,1.10
2023-04-02T13:32:53.878Z,1.52
2023-04-02T13:35:21.550Z,1.27
2023-04-02T13:37:48.940Z,1.58
2023-04-02T13:40:16.991Z,1.15
2023-04-02T13:42:43.822Z,1.10
2023-04-02T13:45:31.428Z,1.50
2023-04-02T13:48:01.030Z,1.25
2023-04-02T13:50:29.136Z,1.17
2023-04-02T13:52:58.577Z,1.33
2023-04-02T13:55:28.416Z,1.30
2023-04-02T13:57:55.905Z,1.55
2023-04-02T14:00:22.725Z,1.83
2023-04-02T14:02:51.982Z,1.65
2023-04-02T14:05:30.956Z,1.20
2023-04-02T14:08:39.167Z,1.17
2023-04-02T14:11:21.091Z,1.20
2023-04-02T14:13:57.633Z,1.20
2023-04-02T14:16:42.279Z,1.30
2023-04-02T14:19:28.941Z,1.20
2023-04-02T14:22:16.275Z,1.13
2023-04-02T14:25:20.498Z,1.40
2023-04-02T14:28:07.995Z,1.17
2023-04-02T14:31:02.788Z,1.10
2023-04-02T14:33:39.753Z,1.40
2023-04-02T14:36:19.615Z,1.38
2023-04-02T14:39:06.280Z,1.10
2023-04-02T14:41:38.112Z,1.10
2023-04-02T14:44:07.224Z,1.40
2023-04-02T14:46:37.591Z,1.15
2023-04-02T14:49:28.501Z,1.10
2023-04-02T14:52:04.742Z,1.20
2023-04-02T14:54:52.388Z,1.30
2023-04-02T14:57:23.907Z,1.20
2023-04-02T15:00:01.340Z,1.10
2023-04-02T15:02:39.140Z,1.40
2023-04-02T15:05:17.856Z,1.10
2023-04-02T15:08:12.361Z,1.40
2023-04-02T15:11:17.974Z,1.30
2023-04-02T15:13:50.074Z,1.30
2023-04-02T15:16:19.369Z,1.30
2023-04-02T15:18:47.052Z,1.25
2023-04-02T15:21:16.849Z,1.10
2023-04-02T15:24:01.790Z,1.15
2023-04-02T15:27:11.949Z,1.17
2023-04-02T15:30:14.951Z,1.10
2023-04-02T15:32:42.960Z,1.23
2023-04-02T15:35:40.922Z,1.13
2023-04-02T15:38:19.265Z,1.20
2023-04-02T15:41:08.033Z,1.17
2023-04-02T15:43:57.613Z,1.30
2023-04-02T15:46:51.699Z,1.10
2023-04-02T15:49:30.465Z,1.13
2023-04-02T15:52:26.728Z,1.00
2023-04-02T15:55:12.062Z,1.30
2023-04-02T15:57:59.877Z,1.17
2023-04-02T16:00:44.595Z,1.00
2023-04-02T16:03:39.575Z,1.13
2023-04-02T16:06:20.339Z,1.13
2023-04-02T16:09:02.980Z,1.10
2023-04-02T16:14:21.793Z,1.13
2023-04-02T16:16:51.098Z,0.90
2023-04-02T16:19:41.641Z,1.17
2023-04-02T16:22:17.269Z,1.02
2023-04-02T16:24:44.045Z,1.10
2023-04-02T16:27:43.184Z,1.10
2023-04-02T16:30:34.629Z,0.90
2023-04-02T16:33:25.544Z,1.10
2023-04-02T16:35:58.837Z,1.00
2023-04-02T16:38:40.407Z,0.90
2023-04-02T16:41:16.136Z,0.95
2023-04-02T16:44:07.449Z,1.13
2023-04-02T16:46:40.790Z,1.08
2023-04-02T16:49:29.392Z,1.70
2023-04-02T16:52:24.288Z,3.05
2023-04-02T16:55:05.357Z,4.18
2023-04-02T16:57:41.379Z,4.00
2023-04-02T17:00:19.741Z,1.40
2023-04-02T17:03:23.891Z,1.08
2023-04-02T17:05:58.725Z,1.20
2023-04-02T17:08:37.877Z,0.95
2023-04-02T17:11:08.425Z,1.10
2023-04-02T17:13:43.584Z,1.00
2023-04-02T17:16:20.894Z,1.10
2023-04-02T17:18:50.000Z,0.70
2023-04-02T17:21:24.246Z,1.02
2023-04-02T17:24:23.406Z,0.90
2023-04-02T17:26:57.478Z,1.00
2023-04-02T17:29:30.120Z,1.08
2023-04-02T17:32:00.852Z,1.35
2023-04-02T17:34:28.094Z,0.90
2023-04-02T17:37:18.111Z,1.00
2023-04-02T17:40:12.939Z,0.93
2023-04-02T17:42:42.578Z,1.05
2023-04-02T17:45:34.535Z,0.80
2023-04-02T17:48:17.439Z,1.00
2023-04-02T17:50:53.162Z,1.08
2023-04-02T17:53:43.580Z,1.20
2023-04-02T17:56:26.632Z,1.25
2023-04-02T17:59:21.413Z,1.40
2023-04-02T18:02:02.650Z,1.00
2023-04-02T18:04:57.566Z,1.20
2023-04-02T18:07:39.806Z,1.17
2023-04-02T18:10:19.280Z,1.27
2023-04-02T18:12:45.823Z,1.08
2023-04-02T18:15:27.554Z,1.40
2023-04-02T18:17:58.444Z,1.10
2023-04-02T18:20:43.427Z,1.70
2023-04-02T18:23:21.407Z,1.42
2023-04-02T18:26:15.864Z,1.80
2023-04-02T18:28:51.822Z,1.40
2023-04-02T18:31:36.993Z,1.50
2023-04-02T18:34:13.317Z,1.58
2023-04-02T18:36:51.270Z,1.90
2023-04-02T18:39:48.613Z,1.60
2023-04-02T18:42:52.042Z,1.65
2023-04-02T18:45:24.686Z,1.45
2023-04-02T18:48:25.194Z,1.42
2023-04-02T18:50:52.613Z,1.50
2023-04-02T18:53:24.182Z,1.38
2023-04-02T18:55:55.641Z,1.70
2023-04-02T18:58:30.144Z,1.65
2023-04-02T19:00:57.863Z,1.50
2023-04-02T19:03:50.412Z,1.38
2023-04-02T19:06:21.509Z,1.60
2023-04-02T19:09:11.239Z,1.40
2023-04-02T19:11:37.904Z,1.60
2023-04-02T19:14:17.913Z,1.42
2023-04-02T19:17:02.130Z,1.90
2023-04-02T19:19:38.265Z,1.95
2023-04-02T19:22:17.932Z,1.30
2023-04-02T19:25:15.375Z,1.33
2023-04-02T19:28:12.010Z,1.60
2023-04-02T19:30:46.630Z,1.73
2023-04-02T19:33:29.082Z,1.60
2023-04-02T19:35:58.775Z,1.40
2023-04-02T19:38:44.056Z,1.65
2023-04-02T19:41:23.076Z,2.00
2023-04-02T19:43:49.583Z,1.95
2023-04-02T19:46:16.137Z,2.17
2023-04-02T19:49:06.281Z,1.88
2023-04-02T19:51:33.728Z,1.67
2023-04-02T19:54:00.675Z,1.60
2023-04-02T19:56:28.228Z,1.45
2023-04-02T19:58:56.648Z,1.50
2023-04-02T20:01:23.498Z,1.40
2023-04-02T20:03:50.045Z,1.48
2023-04-02T20:06:17.073Z,1.63
2023-04-02T20:08:43.478Z,1.50
2023-04-02T20:11:10.013Z,1.42
2023-04-02T20:13:36.571Z,1.50
2023-04-02T20:16:04.481Z,1.25
2023-04-02T20:18:31.985Z,1.40
2023-04-02T20:20:58.658Z,1.45
2023-04-02T20:23:25.055Z,1.40
2023-04-02T20:25:56.157Z,1.13
2023-04-02T20:28:23.636Z,1.10
2023-04-02T20:30:51.215Z,1.10
2023-04-02T20:33:19.063Z,1.30
2023-04-02T20:35:45.737Z,1.15
2023-04-02T20:38:12.196Z,1.80
2023-04-02T20:40:40.849Z,1.40
2023-04-02T20:43:08.720Z,1.30
2023-04-02T20:45:35.556Z,1.77
2023-04-02T20:48:02.552Z,1.63
2023-04-02T20:50:29.228Z,1.48
2023-04-02T20:52:58.176Z,1.30
2023-04-02T20:55:24.707Z,1.50
2023-04-02T20:57:51.154Z,1.55
2023-04-02T21:00:17.809Z,1.60
2023-04-02T21:02:44.556Z,1.80
2023-04-02T21:05:11.203Z,1.83
2023-04-02T21:07:37.897Z,1.50
2023-04-02T21:10:04.631Z,1.60
2023-04-02T21:12:31.397Z,1.83
2023-04-02T21:15:01.106Z,1.60
2023-04-02T21:17:29.324Z,1.80
2023-04-02T21:19:55.919Z,2.17
2023-04-02T21:22:22.360Z,1.98
2023-04-02T21:24:48.907Z,2.45
2023-04-02T21:27:16.154Z,2.10
2023-04-02T21:29:42.662Z,2.80
2023-04-02T21:32:20.891Z,1.90
2023-04-02T21:34:48.148Z,1.88
2023-04-02T21:37:14.652Z,1.70
2023-04-02T21:39:41.412Z,1.90
2023-04-02T21:42:07.874Z,1.80
2023-04-02T21:44:34.314Z,1.70
2023-04-02T21:47:00.796Z,1.58
2023-04-02T21:49:27.601Z,1.60
2023-04-02T21:51:54.217Z,1.70
2023-04-02T21:54:21.021Z,1.80
2023-04-02T21:56:47.485Z,1.73
2023-04-02T21:59:15.513Z,1.60
2023-04-02T22:01:44.814Z,1.88
2023-04-02T22:04:18.865Z,1.88
2023-04-02T22:06:45.750Z,2.28
2023-04-02T22:09:14.847Z,2.00
2023-04-02T22:11:44.508Z,1.58
2023-04-02T22:14:11.574Z,2.15
2023-04-02T22:16:38.572Z,2.45
2023-04-02T22:19:08.525Z,2.70
2023-04-02T22:21:35.990Z,2.22
2023-04-02T22:24:04.484Z,2.00
2023-04-02T22:26:32.096Z,2.40
2023-04-02T22:28:59.421Z,2.03
2023-04-02T22:31:28.365Z,1.90
2023-04-02T22:33:55.686Z,1.70
2023-04-02T22:36:22.880Z,1.90
2023-04-02T22:38:50.115Z,2.00
2023-04-02T22:41:19.310Z,1.85
2023-04-02T22:43:45.996Z,2.00
2023-04-02T22:46:14.527Z,1.77
2023-04-02T22:48:41.122Z,2.10
2023-04-02T22:51:09.668Z,1.73
2023-04-02T22:53:36.657Z,1.90
2023-04-02T22:56:24.324Z,2.03
2023-04-02T22:58:50.996Z,3.90
2023-04-02T23:01:23.824Z,2.10
2023-04-02T23:03:50.334Z,2.13
2023-04-02T23:06:18.069Z,2.20
2023-04-02T23:08:44.988Z,1.60
2023-04-02T23:11:17.011Z,1.67
2023-04-02T23:13:44.818Z,1.98
2023-04-02T23:16:13.151Z,1.77
2023-04-02T23:18:40.875Z,1.75
2023-04-02T23:21:07.788Z,2.28
2023-04-02T23:23:34.717Z,1.88
2023-04-02T23:26:04.190Z,2.10
2023-04-02T23:28:30.866Z,2.05
2023-04-02T23:30:57.312Z,1.65
2023-04-02T23:33:23.914Z,2.10
2023-04-02T23:35:50.460Z,1.65
2023-04-02T23:38:16.969Z,1.70
2023-04-02T23:40:43.425Z,1.70
2023-04-02T23:43:09.924Z,1.83
2023-04-02T23:45:36.295Z,1.70
2023-04-02T23:48:02.751Z,1.80
2023-04-02T23:50:29.356Z,1.92
2023-04-02T23:52:55.767Z,2.00
2023-04-02T23:55:22.139Z,1.90
2023-04-02T23:57:48.626Z,2.45
